Belle Plaine, MN (56011)

10:40 AM CST on December 04, 2016 (GMT -0600)
Our Lady of the Prairie | | Change Station

Elev 840 ft 44.62 °N, 93.77 °W | Updated 2 minutes ago

Overcast
Overcast
34.6 °F
Feels Like 35 °F
N
3.0
Wind Variable Wind from SE
Gusts 6.0 mph

Today
High -- | Low -- °F
--% Chance of Precip.
Yesterday
High -- | Low -- °F
Precip. -- in
Pressure 29.85 in
Visibility 4.0 miles
Clouds Overcast 400 ft
Windchill 35 °F
Dew Point 34 °F
Humidity 96%
Rainfall 0.07 in
Snow Depth Not available.
7:35 AM 4:35 PM
Waxing Crescent, 23% visible
METAR KGYL 041635Z AUTO 17005KT 4SM BR OVC004 01/01 A2985 RMK AO2 P0004 T00120013
Pressure 29.85 in
Visibility 4.0 miles
Clouds Overcast 400 ft
Windchill 35 °F
Dew Point 34 °F
Humidity 96%
Rainfall 0.07 in
Snow Depth Not available.
7:35 AM 4:35 PM
Waxing Crescent, 23% visible
METAR KGYL 041635Z AUTO 17005KT 4SM BR OVC004 01/01 A2985 RMK AO2 P0004 T00120013

10-Day Weather Forecast

Almanac

Astronomy

Dec. 04, 2016 Rise Set
Actual Time
Civil Twilight
Nautical Twilight
Astronomical Twilight
Moon
Length of Visible Light
Length of Day
Tomorrow will be .
, % of the Moon is Illuminated

Today's Extremes

State Highs State Lows

Community

WunderPhotos

Upload Photos

1,955,622 photos uploaded!

WunderBlog® & News

Nearby

Air Quality

  Air Quality AQ Index Pollutant
Not available.

Snow Depth

Station Depth Elevation

Earthquake Activity

City Distance Mag. Time & Date
Minimum magnitude displayed is 2.5.

Coastal Water Temperatures

Place Temperature

Stations

Nearby Weather Stations

Station Location Temp. Windchill Dew Point Humidity Wind Precip. Elev Updated Type
                   

Watches & Warnings

There are currently no watches in effect.